Time;durP1;ratioP1;P1;durP2;ratioP2;P2;SDS_P1;SDS_P2;PMS_P1;PMS_P2;Temp;Humidity;BMP_temperature;BMP_pressure;BME280_temperature;BME280_humidity;BME280_pressure;Samples;Min_cycle;Max_cycle;Signal;HPM_P1;HPM_P2
2023/04/29 00:01:21;;;;;;;8.90;4.38;;;;;;;13.79;52.75;100323.75;5096093;28;20020;-66
2023/04/29 00:03:48;;;;;;;10.88;5.80;;;;;;;13.74;52.23;100315.31;5097920;28;20043;-66
2023/04/29 00:06:13;;;;;;;9.55;5.25;;;;;;;13.75;52.75;100314.28;5086245;28;20034;-66
2023/04/29 00:08:39;;;;;;;8.48;5.05;;;;;;;13.73;52.64;100313.59;5087901;28;20032;-66
2023/04/29 00:11:05;;;;;;;8.38;5.35;;;;;;;13.73;53.03;100310.88;5088445;28;20066;-66
2023/04/29 00:13:30;;;;;;;8.20;5.13;;;;;;;13.70;53.28;100312.06;5107688;28;20027;-66
2023/04/29 00:15:56;;;;;;;11.27;5.43;;;;;;;13.66;53.90;100310.69;5108024;28;20455;-66
2023/04/29 00:18:21;;;;;;;10.43;5.10;;;;;;;13.64;53.36;100299.19;5109114;28;20139;-66
2023/04/29 00:20:47;;;;;;;13.30;5.15;;;;;;;13.65;53.69;100302.75;5109291;28;20058;-66
2023/04/29 00:23:12;;;;;;;7.90;5.35;;;;;;;13.61;53.92;100306.75;5110674;28;20020;-66
2023/04/29 00:25:38;;;;;;;8.30;5.25;;;;;;;13.48;53.79;100287.44;5110621;28;20027;-66
2023/04/29 00:28:07;;;;;;;10.73;5.72;;;;;;;13.49;53.79;100295.38;5110607;28;20104;-67
2023/04/29 00:30:33;;;;;;;9.32;6.22;;;;;;;13.54;53.75;100305.66;5110650;28;20044;-66
2023/04/29 00:32:59;;;;;;;9.40;5.35;;;;;;;13.51;53.59;100308.66;5110264;28;20038;-66
2023/04/29 00:35:24;;;;;;;8.48;5.63;;;;;;;13.41;54.11;100294.41;5110404;28;20027;-66
2023/04/29 00:37:50;;;;;;;9.88;4.97;;;;;;;13.42;54.29;100294.25;5110274;28;20032;-66
2023/04/29 00:40:16;;;;;;;10.02;6.10;;;;;;;13.27;53.43;100276.94;5110049;28;20058;-66
2023/04/29 00:42:41;;;;;;;10.85;5.38;;;;;;;13.38;53.54;100298.25;5110329;28;20032;-66
2023/04/29 00:45:08;;;;;;;8.75;5.72;;;;;;;13.39;53.59;100296.44;5110191;28;20019;-66
2023/04/29 00:47:34;;;;;;;8.23;5.60;;;;;;;13.25;53.47;100268.16;5110301;28;20067;-66
2023/04/29 00:49:59;;;;;;;8.25;5.55;;;;;;;13.41;54.43;100289.88;5108984;28;20140;-66
2023/04/29 00:52:28;;;;;;;10.05;6.10;;;;;;;13.38;54.01;100282.09;5110108;28;20034;-66
2023/04/29 00:54:54;;;;;;;9.48;6.05;;;;;;;13.39;54.26;100281.09;5110072;28;20038;-66
2023/04/29 00:57:21;;;;;;;11.57;6.00;;;;;;;13.38;54.01;100281.25;5110010;28;20205;-66
2023/04/29 00:59:47;;;;;;;12.20;5.85;;;;;;;13.35;54.89;100289.66;5110096;28;20483;-66
2023/04/29 01:02:12;;;;;;;8.23;5.82;;;;;;;13.25;54.43;100268.16;5109394;28;20031;-66
2023/04/29 01:04:38;;;;;;;10.02;5.43;;;;;;;13.32;54.55;100276.50;5109749;28;20028;-66
2023/04/29 01:07:33;;;;;;;10.35;6.25;;;;;;;13.22;55.13;100273.03;5109866;28;20104;-66
2023/04/29 01:10:04;;;;;;;11.15;6.63;;;;;;;13.27;54.96;100284.19;5101868;28;20138;-66
2023/04/29 01:12:53;;;;;;;8.63;6.22;;;;;;;13.25;55.46;100291.53;5109660;28;20372;-66
2023/04/29 01:15:31;;;;;;;9.70;6.57;;;;;;;13.15;55.79;100278.16;5108309;28;20027;-66
2023/04/29 01:18:08;;;;;;;11.90;7.03;;;;;;;13.15;55.40;100274.59;5109631;28;20504;-66
2023/04/29 01:20:34;;;;;;;10.45;6.25;;;;;;;13.23;55.27;100286.31;5108383;28;20038;-66
2023/04/29 01:23:00;;;;;;;9.38;6.70;;;;;;;13.23;55.27;100293.56;5109355;28;20397;-66
2023/04/29 01:25:26;;;;;;;12.13;6.38;;;;;;;13.24;55.15;100290.72;5113718;28;20094;-66
2023/04/29 01:28:07;;;;;;;10.30;7.35;;;;;;;13.20;55.39;100292.03;5112598;28;20118;-66
2023/04/29 01:30:59;;;;;;;11.65;6.68;;;;;;;13.23;55.76;100293.56;5114004;28;20376;-66
2023/04/29 01:33:25;;;;;;;9.85;7.03;;;;;;;13.16;55.69;100287.09;5111730;28;20062;-66
2023/04/29 01:35:58;;;;;;;11.05;7.13;;;;;;;13.15;56.33;100291.63;5113473;28;20067;-66
2023/04/29 01:38:41;;;;;;;10.60;6.45;;;;;;;13.14;56.21;100286.38;5113581;28;20031;-66
2023/04/29 01:41:14;;;;;;;11.80;6.60;;;;;;;13.12;56.01;100285.69;5113732;28;20030;-66
2023/04/29 01:43:40;;;;;;;9.00;7.25;;;;;;;13.07;56.41;100288.00;5112090;28;20028;-61
2023/04/29 01:46:08;;;;;;;11.60;7.20;;;;;;;13.09;56.41;100294.91;5113596;28;20042;-60
2023/04/29 01:48:35;;;;;;;13.00;7.47;;;;;;;13.04;57.35;100286.47;5112275;28;20710;-60
2023/04/29 01:51:01;;;;;;;9.20;7.10;;;;;;;12.95;57.01;100271.19;5113335;28;20031;-61
2023/04/29 01:53:26;;;;;;;12.35;7.57;;;;;;;13.06;56.40;100291.69;5113321;28;20490;-61
2023/04/29 01:55:52;;;;;;;12.02;7.85;;;;;;;13.04;56.87;100289.16;5112968;28;20031;-60
2023/04/29 01:58:17;;;;;;;10.07;7.68;;;;;;;13.02;57.40;100292.97;5113183;28;20666;-60
2023/04/29 02:00:43;;;;;;;9.07;7.28;;;;;;;13.03;57.10;100300.06;5113377;28;20027;-61
2023/04/29 02:03:08;;;;;;;10.40;7.93;;;;;;;13.02;57.50;100301.06;5111799;28;20106;-61
2023/04/29 02:05:34;;;;;;;10.05;7.35;;;;;;;13.02;57.54;100292.97;5113289;28;20489;-61
2023/04/29 02:08:00;;;;;;;10.38;7.45;;;;;;;13.02;57.60;100296.53;5112922;28;20039;-66
2023/04/29 02:10:26;;;;;;;13.00;8.43;;;;;;;13.00;57.31;100287.75;5113138;28;20030;-60
2023/04/29 02:12:52;;;;;;;11.30;7.82;;;;;;;13.04;57.30;100282.91;5113322;28;20024;-61
2023/04/29 02:15:18;;;;;;;13.52;8.65;;;;;;;12.98;56.96;100278.09;5113151;28;20419;-61
2023/04/29 02:17:44;;;;;;;14.45;8.93;;;;;;;13.02;57.41;100287.59;5111792;28;20054;-60
2023/04/29 02:20:10;;;;;;;12.52;8.50;;;;;;;12.98;57.58;100284.34;5112677;27;20036;-61
2023/04/29 02:22:35;;;;;;;11.40;8.00;;;;;;;12.98;56.65;100283.47;5112933;28;20046;-60
2023/04/29 02:25:01;;;;;;;14.00;8.00;;;;;;;12.97;57.25;100271.84;5112844;28;20106;-60
2023/04/29 02:27:26;;;;;;;10.90;8.15;;;;;;;13.01;57.58;100277.81;5111701;28;20051;-60
2023/04/29 02:29:52;;;;;;;11.32;8.43;;;;;;;12.96;57.31;100270.16;5112771;28;20020;-60
2023/04/29 02:32:19;;;;;;;12.77;8.35;;;;;;;12.79;57.74;100245.91;5112234;28;20035;-60
2023/04/29 02:34:45;;;;;;;16.08;9.07;;;;;;;12.95;57.28;100283.78;5112277;28;20534;-61
2023/04/29 02:37:10;;;;;;;13.68;8.52;;;;;;;12.93;57.47;100266.94;5112531;28;20024;-61
2023/04/29 02:39:36;;;;;;;11.43;8.13;;;;;;;12.94;57.13;100271.31;5112493;28;20083;-60
2023/04/29 02:42:01;;;;;;;11.30;8.50;;;;;;;12.95;57.26;100270.31;5112597;28;20160;-61
2023/04/29 02:44:27;;;;;;;11.95;7.72;;;;;;;12.93;56.83;100267.78;5111983;28;20032;-60
2023/04/29 02:46:53;;;;;;;13.20;8.07;;;;;;;12.93;56.75;100262.38;5112493;28;20028;-60
2023/04/29 02:49:18;;;;;;;12.93;9.30;;;;;;;12.95;57.22;100264.94;5112308;28;20040;-60
2023/04/29 02:51:44;;;;;;;11.13;7.97;;;;;;;12.94;57.03;100263.25;5112252;28;20036;-60
2023/04/29 02:54:10;;;;;;;12.95;8.55;;;;;;;12.92;57.05;100268.78;5111085;28;20068;-61
2023/04/29 02:56:36;;;;;;;16.65;8.90;;;;;;;12.93;56.91;100273.16;5112017;28;20030;-60
2023/04/29 02:59:02;;;;;;;11.18;8.45;;;;;;;12.92;57.71;100273.31;5110800;28;20550;-61
2023/04/29 03:01:28;;;;;;;12.75;8.90;;;;;;;12.89;57.64;100276.31;5111900;28;20565;-60
2023/04/29 03:03:53;;;;;;;12.52;8.85;;;;;;;12.90;57.53;100280.72;5112102;28;20027;-60
2023/04/29 03:06:19;;;;;;;10.77;7.93;;;;;;;12.77;57.56;100261.38;5111772;28;20028;-60
2023/04/29 03:08:45;;;;;;;10.25;7.95;;;;;;;12.74;56.94;100256.28;5111847;28;20507;-61
2023/04/29 03:11:10;;;;;;;11.50;8.43;;;;;;;12.83;56.96;100276.94;5112066;28;20031;-61
2023/04/29 03:13:36;;;;;;;11.18;8.73;;;;;;;12.83;57.61;100275.06;5111755;28;20019;-61
2023/04/29 03:16:02;;;;;;;9.90;8.23;;;;;;;12.75;57.08;100260.66;5111954;28;20026;-60
2023/04/29 03:18:27;;;;;;;12.10;8.27;;;;;;;12.87;56.50;100283.69;5110248;28;20027;-60
2023/04/29 03:20:53;;;;;;;10.20;8.02;;;;;;;12.80;56.54;100272.66;5111502;28;20039;-60
2023/04/29 03:23:18;;;;;;;10.23;8.07;;;;;;;12.85;56.82;100288.38;5110132;28;20024;-60
2023/04/29 03:25:43;;;;;;;17.08;8.88;;;;;;;12.83;57.20;100288.53;5111933;28;20156;-61
2023/04/29 03:28:09;;;;;;;14.43;7.95;;;;;;;12.81;56.62;100279.78;5109504;28;20028;-61
2023/04/29 03:30:35;;;;;;;13.52;8.63;;;;;;;12.76;57.04;100282.03;5111250;28;20027;-61
2023/04/29 03:33:01;;;;;;;13.05;8.45;;;;;;;12.75;57.34;100272.28;5110706;28;20028;-61
2023/04/29 03:35:26;;;;;;;11.82;8.05;;;;;;;12.74;57.52;100272.44;5109921;28;20035;-60
2023/04/29 03:37:52;;;;;;;11.10;7.55;;;;;;;12.72;57.75;100264.50;5111251;28;20435;-60
2023/04/29 03:40:18;;;;;;;10.45;7.82;;;;;;;12.72;57.55;100271.72;5110670;28;20047;-66
2023/04/29 03:42:43;;;;;;;13.50;7.72;;;;;;;12.55;57.50;100245.63;5109710;28;20023;-66
2023/04/29 03:45:11;;;;;;;11.20;6.90;;;;;;;12.62;57.69;100262.84;5111028;28;20034;-66
2023/04/29 03:47:37;;;;;;;8.23;6.90;;;;;;;12.62;56.97;100273.63;5108989;28;20059;-66
2023/04/29 03:50:03;;;;;;;10.13;7.68;;;;;;;12.70;56.14;100284.47;5110791;28;20070;-66
2023/04/29 03:52:28;;;;;;;10.18;7.25;;;;;;;12.67;55.96;100284.81;5110658;28;20027;-67
2023/04/29 03:54:54;;;;;;;11.23;7.60;;;;;;;12.65;55.59;100281.41;5110571;28;20032;-66
2023/04/29 03:57:19;;;;;;;13.90;7.05;;;;;;;12.68;56.11;100283.78;5110536;28;20039;-66
2023/04/29 03:59:49;;;;;;;11.23;6.97;;;;;;;12.74;55.11;100285.88;5110802;27;20658;-66
2023/04/29 04:02:15;;;;;;;9.32;6.90;;;;;;;12.67;55.27;100280.25;5108316;28;20023;-66
2023/04/29 04:04:41;;;;;;;12.00;6.75;;;;;;;12.67;55.31;100279.41;5109401;28;20051;-66
2023/04/29 04:07:06;;;;;;;8.57;7.00;;;;;;;12.58;54.74;100267.66;5109258;28;20036;-66
2023/04/29 04:09:32;;;;;;;7.90;6.53;;;;;;;12.66;54.96;100283.09;5110475;27;20448;-66
2023/04/29 04:11:59;;;;;;;14.52;7.20;;;;;;;12.65;55.50;100289.47;5110483;28;20463;-66
2023/04/29 04:14:24;;;;;;;11.63;6.90;;;;;;;12.63;55.21;100288.75;5109906;27;20055;-66
2023/04/29 04:16:50;;;;;;;9.15;6.63;;;;;;;12.65;54.89;100292.16;5110243;28;20548;-66
2023/04/29 04:19:16;;;;;;;10.30;6.97;;;;;;;12.60;54.95;100271.06;5109006;28;20019;-66
2023/04/29 04:21:41;;;;;;;7.60;6.18;;;;;;;12.64;55.50;100282.41;5108988;28;20038;-66
2023/04/29 04:24:07;;;;;;;10.23;6.72;;;;;;;12.60;55.30;100271.06;5108870;28;20015;-67
2023/04/29 04:26:33;;;;;;;13.88;7.78;;;;;;;12.58;55.02;100261.47;5109788;28;20027;-66
2023/04/29 04:28:58;;;;;;;11.48;7.40;;;;;;;12.41;55.51;100221.91;5107742;28;20023;-66
2023/04/29 04:31:24;;;;;;;8.65;7.22;;;;;;;12.63;54.56;100262.72;5108449;28;20555;-67
2023/04/29 04:33:50;;;;;;;10.52;6.75;;;;;;;12.65;54.37;100273.31;5109930;28;20076;-66
2023/04/29 04:36:15;;;;;;;9.38;6.78;;;;;;;12.56;54.43;100256.22;5109517;28;20373;-67
2023/04/29 04:38:41;;;;;;;9.95;7.57;;;;;;;12.52;54.54;100252.16;5109367;28;20488;-66
2023/04/29 04:41:09;;;;;;;9.40;7.05;;;;;;;12.61;54.56;100261.16;5109739;28;20043;-66
2023/04/29 04:43:35;;;;;;;14.57;6.90;;;;;;;12.63;54.51;100272.63;5109652;28;20028;-67
2023/04/29 04:46:12;;;;;;;12.20;6.75;;;;;;;12.66;54.00;100267.78;5109456;28;20483;-67
2023/04/29 04:48:37;;;;;;;9.23;6.40;;;;;;;12.65;54.32;100265.25;5107872;28;20040;-66
2023/04/29 04:51:10;;;;;;;9.85;6.75;;;;;;;12.69;54.27;100269.34;5109772;28;20039;-66
2023/04/29 04:53:36;;;;;;;11.07;6.68;;;;;;;12.69;53.65;100264.81;5107515;28;20015;-66
2023/04/29 04:56:02;;;;;;;8.80;6.10;;;;;;;12.72;53.83;100272.59;5109471;28;20030;-66
2023/04/29 04:58:27;;;;;;;9.95;7.35;;;;;;;12.71;53.91;100264.66;5108961;28;20073;-66
2023/04/29 05:00:53;;;;;;;10.63;6.43;;;;;;;12.67;53.50;100268.66;5107777;28;20061;-66
2023/04/29 05:03:18;;;;;;;8.35;6.20;;;;;;;12.67;53.04;100260.59;5109626;28;20020;-66
2023/04/29 05:05:44;;;;;;;10.73;6.65;;;;;;;12.75;53.19;100280.34;5103647;28;20032;-66
2023/04/29 05:08:09;;;;;;;9.90;6.57;;;;;;;12.74;53.31;100281.34;5089568;28;20051;-66
2023/04/29 05:10:38;;;;;;;8.65;5.97;;;;;;;12.74;53.24;100275.13;5104029;28;20038;-66
2023/04/29 05:13:03;;;;;;;10.02;6.55;;;;;;;12.71;53.34;100278.13;5109867;28;20032;-66
2023/04/29 05:15:28;;;;;;;12.25;6.38;;;;;;;12.86;52.28;100282.84;5109570;28;20032;-66
2023/04/29 05:17:54;;;;;;;9.68;6.00;;;;;;;12.83;52.83;100293.06;5108767;28;20027;-66
2023/04/29 05:20:20;;;;;;;7.40;6.40;;;;;;;12.79;52.84;100276.38;5109322;28;20039;-66
2023/04/29 05:22:45;;;;;;;10.73;6.78;;;;;;;12.83;52.42;100291.22;5101601;28;20032;-66
2023/04/29 05:25:11;;;;;;;8.75;5.93;;;;;;;12.85;52.67;100291.06;5107893;28;20051;-66
2023/04/29 05:27:36;;;;;;;9.95;6.85;;;;;;;12.86;51.90;100295.44;5110077;28;20019;-66
2023/04/29 05:30:02;;;;;;;9.52;6.22;;;;;;;12.86;52.40;100292.75;5109494;28;20024;-66
2023/04/29 05:32:27;;;;;;;9.15;6.03;;;;;;;12.87;52.20;100292.59;5108010;28;20114;-66
2023/04/29 05:34:53;;;;;;;9.30;6.10;;;;;;;12.87;53.02;100299.84;5106124;28;20474;-66
2023/04/29 05:37:18;;;;;;;9.98;6.72;;;;;;;12.89;52.91;100303.22;5106470;28;20023;-66
2023/04/29 05:39:44;;;;;;;11.25;6.35;;;;;;;12.92;53.15;100301.09;5109555;28;20097;-67
2023/04/29 05:42:09;;;;;;;10.43;7.05;;;;;;;12.86;52.54;100284.69;5109360;28;20161;-66
2023/04/29 05:44:35;;;;;;;8.70;6.15;;;;;;;12.92;52.48;100302.91;5109060;28;20035;-67
2023/04/29 05:47:00;;;;;;;9.48;6.80;;;;;;;12.88;52.69;100293.47;5109433;28;20030;-66
2023/04/29 05:49:26;;;;;;;10.88;7.30;;;;;;;12.90;52.94;100296.84;5109050;28;20083;-66
2023/04/29 05:51:51;;;;;;;9.95;6.60;;;;;;;12.90;52.40;100302.25;5107968;28;20031;-67
2023/04/29 05:54:16;;;;;;;11.88;7.03;;;;;;;12.89;52.38;100297.84;5109740;28;20016;-66
2023/04/29 05:56:42;;;;;;;10.82;7.20;;;;;;;12.89;52.12;100297.84;5109313;28;20027;-67
2023/04/29 05:59:07;;;;;;;9.68;7.18;;;;;;;12.91;52.59;100298.53;5109247;28;20483;-66
2023/04/29 06:01:33;;;;;;;15.05;6.65;;;;;;;12.78;52.50;100273.81;5109836;28;20019;-66
2023/04/29 06:03:58;;;;;;;7.50;6.30;;;;;;;12.89;52.92;100297.84;5109625;28;20027;-66
2023/04/29 06:06:24;;;;;;;9.52;6.30;;;;;;;12.73;53.17;100271.56;5109596;28;20035;-66
2023/04/29 06:08:50;;;;;;;10.30;7.32;;;;;;;12.94;53.94;100300.94;5108357;28;20620;-66
2023/04/29 06:11:15;;;;;;;11.15;6.63;;;;;;;12.89;54.48;100289.75;5112814;28;20048;-66
2023/04/29 06:13:41;;;;;;;13.43;7.13;;;;;;;12.97;54.58;100308.72;5112881;28;20036;-66
2023/04/29 06:16:06;;;;;;;13.57;6.72;;;;;;;13.01;53.68;100296.69;5113280;28;20479;-66
2023/04/29 06:18:32;;;;;;;8.55;6.22;;;;;;;12.96;53.79;100285.50;5113211;28;20031;-66
2023/04/29 06:20:57;;;;;;;12.90;7.00;;;;;;;13.02;53.68;100290.28;5112034;28;20035;-66
2023/04/29 06:23:23;;;;;;;8.60;6.43;;;;;;;13.06;53.25;100289.00;5111672;28;20028;-66
2023/04/29 06:25:48;;;;;;;9.57;6.90;;;;;;;12.88;52.51;100256.63;5112448;28;20073;-66
2023/04/29 06:28:14;;;;;;;10.50;6.05;;;;;;;13.09;52.31;100286.00;5113321;28;20035;-66
2023/04/29 06:30:40;;;;;;;11.43;6.05;;;;;;;13.11;52.23;100279.47;5111833;28;20039;-66
2023/04/29 06:33:06;;;;;;;9.85;6.97;;;;;;;13.16;52.45;100281.72;5112894;28;20484;-66
2023/04/29 06:35:32;;;;;;;11.73;6.45;;;;;;;13.12;52.33;100267.69;5112910;28;20027;-66
2023/04/29 06:37:57;;;;;;;10.43;6.30;;;;;;;13.26;51.71;100285.19;5113013;28;20035;-66
2023/04/29 06:40:23;;;;;;;7.80;5.82;;;;;;;13.31;51.15;100291.81;5112488;28;20057;-66
2023/04/29 06:42:48;;;;;;;12.32;6.55;;;;;;;13.36;51.69;100285.97;5112907;28;20024;-66
2023/04/29 06:45:14;;;;;;;11.18;6.53;;;;;;;13.46;51.63;100292.13;5112687;28;20028;-66
2023/04/29 06:47:39;;;;;;;12.05;6.65;;;;;;;13.53;51.46;100285.09;5112888;28;20028;-67
2023/04/29 06:50:05;;;;;;;8.95;7.13;;;;;;;13.64;50.96;100276.78;5111229;28;20502;-66
2023/04/29 06:52:30;;;;;;;7.13;5.65;;;;;;;13.76;51.40;100275.53;5112624;28;20404;-66
2023/04/29 06:54:56;;;;;;;12.65;7.22;;;;;;;13.81;51.14;100267.84;5112687;28;20023;-66
2023/04/29 06:57:21;;;;;;;9.52;6.35;;;;;;;14.09;50.91;100284.75;5112565;28;20050;-67
2023/04/29 06:59:47;;;;;;;14.18;7.25;;;;;;;14.17;50.02;100271.28;5113014;28;20338;-67
2023/04/29 07:02:12;;;;;;;11.73;7.75;;;;;;;14.35;49.18;100285.63;5111048;28;20024;-67
2023/04/29 07:04:38;;;;;;;11.43;7.47;;;;;;;14.36;49.25;100268.41;5111828;28;20095;-67
2023/04/29 07:07:04;;;;;;;15.85;8.20;;;;;;;14.61;48.95;100287.25;5111236;28;20035;-67
2023/04/29 07:09:29;;;;;;;14.98;6.95;;;;;;;14.81;48.23;100290.59;5110998;28;20480;-68
2023/04/29 07:11:55;;;;;;;10.63;5.70;;;;;;;14.87;48.43;100296.16;5089785;28;20036;-67
2023/04/29 07:14:23;;;;;;;9.02;6.43;;;;;;;15.03;48.07;100290.00;5092196;28;20028;-67
2023/04/29 07:16:54;;;;;;;11.23;6.30;;;;;;;15.05;47.57;100277.16;5112423;28;20027;-67
2023/04/29 07:19:20;;;;;;;9.40;5.82;;;;;;;15.19;47.52;100287.34;5110693;28;20131;-67
2023/04/29 07:21:49;;;;;;;7.65;5.35;;;;;;;15.26;47.25;100262.19;5110772;28;20110;-68
2023/04/29 07:24:14;;;;;;;10.57;5.72;;;;;;;15.63;46.47;100283.38;5111912;28;20028;-66
2023/04/29 07:26:43;;;;;;;7.22;5.05;;;;;;;15.73;46.40;100276.81;5111795;28;20033;-67
2023/04/29 07:29:08;;;;;;;8.18;5.20;;;;;;;15.96;46.06;100285.09;5111701;28;20019;-67
2023/04/29 07:31:34;;;;;;;9.70;5.55;;;;;;;16.18;44.81;100276.28;5111921;28;20031;-67
2023/04/29 07:33:59;;;;;;;9.05;5.32;;;;;;;16.29;45.00;100285.91;5109815;28;20046;-67
2023/04/29 07:36:27;;;;;;;5.78;4.47;;;;;;;16.31;44.39;100260.34;5100154;28;20024;-66
2023/04/29 07:38:52;;;;;;;12.82;5.15;;;;;;;16.49;44.08;100269.16;5092200;28;20139;-67
2023/04/29 07:41:18;;;;;;;6.47;5.07;;;;;;;16.61;44.47;100272.31;5111811;28;20102;-67
2023/04/29 07:43:43;;;;;;;7.25;4.60;;;;;;;16.58;44.18;100259.13;5111394;28;20357;-66
2023/04/29 07:46:08;;;;;;;9.05;4.70;;;;;;;16.74;43.58;100273.47;5110568;28;20127;-67
2023/04/29 07:48:38;;;;;;;10.00;4.65;;;;;;;16.90;43.07;100284.22;5111409;28;20134;-67
2023/04/29 07:51:05;;;;;;;9.38;4.70;;;;;;;16.97;43.01;100274.38;5110674;28;20415;-67
2023/04/29 07:53:31;;;;;;;6.75;4.78;;;;;;;17.11;43.04;100278.19;5108918;27;20744;-67
2023/04/29 07:55:56;;;;;;;9.95;5.30;;;;;;;17.25;43.21;100283.72;5110112;28;20024;-67
2023/04/29 07:58:22;;;;;;;7.90;4.38;;;;;;;17.38;43.05;100277.72;5110684;28;20421;-67
2023/04/29 08:00:47;;;;;;;8.27;4.70;;;;;;;17.59;42.33;100276.06;5110012;28;20057;-67
2023/04/29 08:03:13;;;;;;;9.00;5.00;;;;;;;17.78;42.57;100272.88;5110391;28;20026;-67
2023/04/29 08:05:38;;;;;;;7.93;4.25;;;;;;;18.04;41.61;100286.06;5110723;27;20030;-67
2023/04/29 08:08:04;;;;;;;8.65;4.32;;;;;;;18.23;39.65;100281.97;5110141;28;20043;-67
2023/04/29 08:10:30;;;;;;;9.35;3.90;;;;;;;18.37;39.79;100278.47;5109894;28;20035;-67
2023/04/29 08:12:56;;;;;;;8.80;4.63;;;;;;;18.55;39.24;100279.81;5110335;28;20028;-67
2023/04/29 08:15:22;;;;;;;6.95;4.32;;;;;;;18.80;37.68;100285.81;5110729;28;20042;-67
2023/04/29 08:17:47;;;;;;;8.60;4.32;;;;;;;18.99;37.62;100288.78;5109955;28;20042;-67
2023/04/29 08:20:13;;;;;;;6.13;3.80;;;;;;;19.25;36.88;100296.44;5109604;28;20042;-67
2023/04/29 08:22:39;;;;;;;9.73;4.18;;;;;;;19.43;35.60;100291.44;4751333;27;10000479;-67
2023/04/29 08:25:05;;;;;;;13.73;3.58;;;;;;;19.63;35.30;100297.94;5099866;28;20567;-67
2023/04/29 08:27:31;;;;;;;5.72;3.30;;;;;;;19.75;34.06;100293.69;5106267;28;20085;-67
2023/04/29 08:29:56;;;;;;;6.15;3.45;;;;;;;20.01;34.16;100278.44;5104968;28;20051;-67
2023/04/29 08:32:22;;;;;;;5.53;2.88;;;;;;;20.79;32.94;100271.91;5107622;28;20042;-67
2023/04/29 08:34:47;;;;;;;8.02;3.22;;;;;;;21.00;32.37;100255.47;5107517;28;20053;-67
2023/04/29 08:37:14;;;;;;;4.43;2.42;;;;;;;21.27;32.59;100270.88;5107933;28;20023;-68
2023/04/29 08:39:42;;;;;;;5.75;3.15;;;;;;;21.51;32.59;100276.63;5107491;28;20055;-67
2023/04/29 08:42:10;;;;;;;9.50;3.55;;;;;;;21.71;32.70;100276.69;5108081;28;20431;-67
2023/04/29 08:44:37;;;;;;;4.75;2.70;;;;;;;21.73;32.61;100272.72;5108058;28;20114;-67
2023/04/29 08:47:03;;;;;;;5.43;2.92;;;;;;;21.42;32.41;100264.25;5105789;28;20072;-67
2023/04/29 08:49:31;;;;;;;6.93;2.92;;;;;;;21.30;32.60;100276.78;5107710;28;20023;-67
2023/04/29 08:51:56;;;;;;;8.88;3.03;;;;;;;21.39;32.10;100264.66;5107564;28;20046;-67
2023/04/29 08:54:22;;;;;;;5.25;3.05;;;;;;;21.25;32.25;100276.56;5107748;28;20027;-67
2023/04/29 08:56:50;;;;;;;5.45;2.75;;;;;;;21.08;32.56;100279.81;5107574;28;20054;-67
2023/04/29 08:59:17;;;;;;;6.10;3.17;;;;;;;20.73;32.47;100237.28;5105688;28;20511;-67
2023/04/29 09:01:43;;;;;;;6.18;3.45;;;;;;;20.97;33.31;100264.06;5107781;28;20262;-67
2023/04/29 09:04:20;;;;;;;4.78;3.30;;;;;;;21.03;33.14;100279.63;5107541;28;20070;-67
2023/04/29 09:06:47;;;;;;;7.80;3.50;;;;;;;21.09;33.42;100276.06;5107669;28;20027;-67
2023/04/29 09:09:14;;;;;;;6.05;2.95;;;;;;;21.11;33.30;100276.69;5107446;28;20051;-67
2023/04/29 09:11:40;;;;;;;7.53;2.90;;;;;;;21.09;33.27;100266.00;5105699;28;20031;-67
2023/04/29 09:14:07;;;;;;;8.52;2.97;;;;;;;21.12;33.29;100272.94;5107393;28;20027;-67
2023/04/29 09:16:34;;;;;;;6.55;3.50;;;;;;;21.08;33.17;100268.91;5107300;28;20028;-67
2023/04/29 09:18:59;;;;;;;4.63;2.97;;;;;;;21.16;32.56;100255.97;5107334;28;20212;-67
2023/04/29 09:21:26;;;;;;;8.23;3.78;;;;;;;21.35;32.83;100271.53;5107406;28;20464;-67
2023/04/29 09:23:54;;;;;;;5.03;3.08;;;;;;;21.36;33.07;100258.75;5113150;28;20035;-67
2023/04/29 09:26:20;;;;;;;5.03;3.25;;;;;;;21.48;32.51;100259.84;5106353;28;20027;-67
2023/04/29 09:28:46;;;;;;;4.88;2.85;;;;;;;21.49;32.10;100247.88;5106747;28;20036;-67
2023/04/29 09:31:13;;;;;;;6.30;3.08;;;;;;;21.66;32.34;100257.34;5107127;28;20082;-67
2023/04/29 09:33:56;;;;;;;7.70;2.83;;;;;;;21.76;32.39;100266.00;5106136;28;20028;-67
2023/04/29 09:36:47;;;;;;;9.45;4.47;;;;;;;21.73;32.35;100258.25;5106961;28;21045;-68
2023/04/29 09:39:21;;;;;;;5.07;3.28;;;;;;;21.84;32.39;100257.63;5105478;28;20044;-67
2023/04/29 09:41:52;;;;;;;8.00;3.83;;;;;;;21.88;32.40;100251.53;5107149;28;20081;-67
2023/04/29 09:44:21;;;;;;;6.72;3.55;;;;;;;21.94;32.51;100249.88;5105377;28;20123;-67
2023/04/29 09:46:58;;;;;;;5.85;3.28;;;;;;;21.99;32.38;100252.81;5110652;28;20039;-67
2023/04/29 09:49:24;;;;;;;7.97;3.72;;;;;;;22.05;32.38;100249.22;5110381;28;20755;-67
2023/04/29 09:52:07;;;;;;;6.88;2.72;;;;;;;22.11;32.29;100240.19;5110716;28;20035;-67
2023/04/29 09:54:37;;;;;;;4.97;2.92;;;;;;;22.26;31.91;100241.69;5110606;28;20039;-68
2023/04/29 09:57:07;;;;;;;4.35;3.10;;;;;;;22.35;31.37;100231.34;5111176;28;20027;-68
2023/04/29 09:59:37;;;;;;;6.47;2.83;;;;;;;22.42;31.80;100226.72;5110394;28;20032;-67
2023/04/29 10:02:14;;;;;;;4.63;2.92;;;;;;;22.58;31.70;100247.31;5110501;28;20019;-67
2023/04/29 10:04:41;;;;;;;5.57;3.50;;;;;;;22.72;31.55;100238.03;5105339;28;20036;-67
2023/04/29 10:07:08;;;;;;;5.22;2.95;;;;;;;22.87;31.09;100242.19;5104697;27;20063;-67
2023/04/29 10:09:36;;;;;;;7.40;3.65;;;;;;;22.75;31.84;100226.66;5106199;28;20039;-66
2023/04/29 10:12:06;;;;;;;5.95;3.22;;;;;;;22.86;31.44;100235.03;5096627;27;20020;-66
2023/04/29 10:14:44;;;;;;;4.93;2.80;;;;;;;22.91;31.42;100237.13;5095895;27;20062;-66
2023/04/29 10:17:17;;;;;;;6.18;2.83;;;;;;;22.91;31.69;100242.59;5101327;27;20047;-66
2023/04/29 10:19:48;;;;;;;6.55;2.58;;;;;;;22.91;31.93;100234.38;5108545;28;20031;-67
2023/04/29 10:22:21;;;;;;;6.85;3.00;;;;;;;22.81;31.81;100204.75;5104483;28;20058;-67
2023/04/29 10:24:48;;;;;;;5.40;2.70;;;;;;;23.00;31.45;100217.53;5091661;28;20587;-67
2023/04/29 10:27:14;;;;;;;10.48;3.35;;;;;;;23.09;31.60;100235.38;5089868;28;20028;-67
2023/04/29 10:29:42;;;;;;;10.13;3.40;;;;;;;22.99;31.83;100234.97;5104971;28;20718;-66
2023/04/29 10:32:11;;;;;;;6.32;3.15;;;;;;;22.98;32.20;100216.91;5104830;28;20032;-67
2023/04/29 10:34:39;;;;;;;5.72;2.80;;;;;;;22.98;32.34;100221.50;5104192;27;20046;-66
2023/04/29 10:37:08;;;;;;;7.10;2.97;;;;;;;22.98;32.46;100216.03;5086391;28;20036;-67
2023/04/29 10:39:42;;;;;;;7.30;3.22;;;;;;;23.06;31.99;100230.34;5105759;27;20055;-66
2023/04/29 10:42:20;;;;;;;4.28;2.40;;;;;;;22.94;31.96;100226.59;5102518;28;20434;-67
2023/04/29 10:45:22;;;;;;;4.63;2.58;;;;;;;22.87;32.59;100214.84;5108655;28;20043;-67
2023/04/29 10:48:04;;;;;;;6.03;2.70;;;;;;;22.95;31.95;100209.13;5101913;27;20138;-67
2023/04/29 10:50:36;;;;;;;5.90;3.22;;;;;;;22.87;31.91;100212.13;5107145;27;20039;-67
2023/04/29 10:53:03;;;;;;;5.95;2.88;;;;;;;22.76;32.17;100214.69;5111074;28;20043;-67
2023/04/29 10:55:29;;;;;;;4.75;2.65;;;;;;;22.79;31.94;100200.56;5107759;28;20534;-67
2023/04/29 10:57:56;;;;;;;5.05;2.55;;;;;;;22.67;32.46;100207.75;5102912;28;20034;-67
2023/04/29 11:00:28;;;;;;;4.75;2.45;;;;;;;22.45;32.67;100196.22;5090549;28;20073;-67
2023/04/29 11:02:58;;;;;;;4.85;2.30;;;;;;;22.42;32.64;100199.38;5102007;28;20012;-67
2023/04/29 11:05:31;;;;;;;6.18;2.97;;;;;;;22.18;33.33;100191.84;5109084;28;20027;-66
2023/04/29 11:08:21;;;;;;;4.53;2.67;;;;;;;22.15;33.39;100198.56;5110767;28;20084;-67
2023/04/29 11:10:47;;;;;;;5.60;2.75;;;;;;;22.10;33.25;100200.28;5107585;28;20075;-67
2023/04/29 11:13:25;;;;;;;4.65;2.42;;;;;;;22.17;33.42;100201.94;5107341;28;20058;-67
2023/04/29 11:15:52;;;;;;;4.03;3.08;;;;;;;22.26;33.03;100194.38;5105007;28;20062;-66
2023/04/29 11:18:17;;;;;;;4.25;2.90;;;;;;;22.09;33.20;100179.47;5100267;27;20723;-68
2023/04/29 11:21:05;;;;;;;6.00;3.00;;;;;;;22.03;33.39;100189.34;5096731;28;20048;-67
2023/04/29 11:23:40;;;;;;;7.40;2.90;;;;;;;22.06;33.59;100188.91;5091259;28;20236;-67